Time;durP1;ratioP1;P1;durP2;ratioP2;P2;SDS_P1;SDS_P2;PMS_P1;PMS_P2;Temp;Humidity;BMP_temperature;BMP_pressure;BME280_temperature;BME280_humidity;BME280_pressure;Samples;Min_cycle;Max_cycle;Signal;HPM_P1;HPM_P2
2023/02/08 00:02:23;;;;;;;;;;;0.20;99.90;;;;;;8396501;28;19931;-74
2023/02/08 00:06:24;;;;;;;;;;;0.10;99.90;;;;;;8393827;28;19970;-73
2023/02/08 00:10:26;;;;;;;;;;;0.00;99.90;;;;;;8403097;28;20693;-74
2023/02/08 00:14:28;;;;;;;;;;;0.00;99.90;;;;;;8400410;28;19936;-74
2023/02/08 00:18:30;;;;;;;;;;;0.00;99.90;;;;;;8398410;28;19995;-74
2023/02/08 00:22:32;;;;;;;;;;;0.00;99.90;;;;;;8400353;28;20434;-74
2023/02/08 00:26:33;;;;;;;;;;;0.00;99.90;;;;;;8396309;28;19983;-74
2023/02/08 00:30:35;;;;;;;;;;;0.00;99.90;;;;;;8408521;28;19928;-74
2023/02/08 00:34:37;;;;;;;;;;;-0.10;99.90;;;;;;8396782;28;19954;-74
2023/02/08 00:38:39;;;;;;;;;;;-0.10;99.90;;;;;;8405837;28;19928;-74
2023/02/08 00:42:40;;;;;;;;;;;-0.10;99.90;;;;;;8392278;28;19925;-74
2023/02/08 00:46:42;;;;;;;;;;;-0.20;99.90;;;;;;8359274;28;19929;-74
2023/02/08 00:50:44;;;;;;;;;;;-0.30;99.90;;;;;;8396098;28;19924;-74
2023/02/08 00:54:46;;;;;;;;;;;-0.30;99.90;;;;;;8377804;28;19931;-74
2023/02/08 00:58:47;;;;;;;;;;;-0.40;99.90;;;;;;8389426;28;20475;-74
2023/02/08 01:02:49;;;;;;;;;;;-0.40;99.90;;;;;;8402964;28;19933;-73
2023/02/08 01:06:51;;;;;;;;;;;-0.50;99.90;;;;;;8376345;28;19924;-74
2023/02/08 01:26:04;;;;;;;;;;;-0.50;99.90;;;;;;8401279;28;20283;-74
2023/02/08 01:30:06;;;;;;;;;;;-0.60;99.90;;;;;;8390371;28;19964;-74
2023/02/08 01:34:08;;;;;;;;;;;-0.70;99.90;;;;;;8382187;28;19924;-74
2023/02/08 01:38:11;;;;;;;;;;;-0.70;99.90;;;;;;8401644;28;19923;-74
2023/02/08 01:42:14;;;;;;;;;;;-0.70;99.90;;;;;;8387215;28;19924;-73
2023/02/08 01:46:15;;;;;;;;;;;-0.70;99.90;;;;;;8385042;28;19932;-74
2023/02/08 01:50:43;;;;;;;;;;;-0.70;99.90;;;;;;8392811;28;19974;-74
2023/02/08 01:54:49;;;;;;;;;;;-0.70;99.90;;;;;;8396771;28;19931;-74
2023/02/08 01:58:52;;;;;;;;;;;-0.80;99.90;;;;;;8384702;28;20418;-74
2023/02/08 02:07:45;;;;;;;;;;;-0.90;99.90;;;;;;8313931;28;21193;-74
2023/02/08 02:11:48;;;;;;;;;;;-0.90;99.90;;;;;;8321246;28;19933;-74
2023/02/08 02:21:03;;;;;;;;;;;-1.00;99.90;;;;;;8309230;28;20003;-74
2023/02/08 02:25:34;;;;;;;;;;;-1.00;99.90;;;;;;8307283;28;20380;-74
2023/02/08 02:29:45;;;;;;;;;;;-1.10;99.90;;;;;;8319912;28;19925;-73
2023/02/08 02:49:01;;;;;;;;;;;-1.20;99.90;;;;;;8316484;28;19961;-74
2023/02/08 02:53:06;;;;;;;;;;;-1.30;99.90;;;;;;8321061;28;19925;-73
2023/02/08 02:57:09;;;;;;;;;;;-1.30;99.90;;;;;;8326684;28;19939;-74
2023/02/08 03:01:11;;;;;;;;;;;-1.30;99.90;;;;;;8316577;28;19937;-74
2023/02/08 03:05:13;;;;;;;;;;;-1.30;99.90;;;;;;8337499;28;19932;-74
2023/02/08 03:09:14;;;;;;;;;;;-1.30;99.90;;;;;;8386235;28;19925;-74
2023/02/08 03:13:28;;;;;;;;;;;-1.40;99.90;;;;;;8392781;28;19932;-73
2023/02/08 03:17:33;;;;;;;;;;;-1.40;99.90;;;;;;8385943;28;20019;-74
2023/02/08 03:21:55;;;;;;;;;;;-1.40;99.90;;;;;;8385671;28;19971;-74
2023/02/08 03:26:04;;;;;;;;;;;-1.40;99.90;;;;;;8376214;28;19967;-74
2023/02/08 03:30:25;;;;;;;;;;;-1.50;99.90;;;;;;8355954;28;19947;-74
2023/02/08 03:34:30;;;;;;;;;;;-1.50;99.90;;;;;;8370423;28;19972;-74
2023/02/08 03:38:37;;;;;;;;;;;-1.50;99.90;;;;;;8390025;28;19932;-74
2023/02/08 03:42:38;;;;;;;;;;;-1.60;99.90;;;;;;8367064;28;20008;-74
2023/02/08 03:47:00;;;;;;;;;;;-1.60;99.90;;;;;;8387302;28;20625;-74
2023/02/08 03:51:02;;;;;;;;;;;-1.70;99.90;;;;;;8386976;28;20372;-74
2023/02/08 03:55:10;;;;;;;;;;;-1.70;99.90;;;;;;8375563;28;19924;-74
2023/02/08 03:59:18;;;;;;;;;;;-1.70;99.90;;;;;;8385915;28;19924;-73
2023/02/08 04:03:23;;;;;;;;;;;-1.80;99.90;;;;;;8384326;28;19928;-74
2023/02/08 04:07:24;;;;;;;;;;;-1.80;99.90;;;;;;8372481;28;20410;-74
2023/02/08 04:11:26;;;;;;;;;;;-1.80;99.90;;;;;;8367661;28;19954;-74
2023/02/08 04:15:28;;;;;;;;;;;-1.80;99.90;;;;;;8385472;28;19928;-73
2023/02/08 04:19:29;;;;;;;;;;;-1.80;99.90;;;;;;8371630;28;20464;-74
2023/02/08 04:23:31;;;;;;;;;;;-1.80;99.90;;;;;;8383537;28;19932;-74
2023/02/08 04:32:36;;;;;;;;;;;-1.80;99.90;;;;;;8386548;28;20465;-74
2023/02/08 04:36:38;;;;;;;;;;;-1.90;99.90;;;;;;8379363;28;19938;-74
2023/02/08 04:40:39;;;;;;;;;;;-1.90;99.90;;;;;;8384124;28;20383;-74
2023/02/08 04:44:41;;;;;;;;;;;-1.90;99.90;;;;;;8394117;28;20291;-73
2023/02/08 04:48:43;;;;;;;;;;;-1.90;99.90;;;;;;8367161;28;19929;-74
2023/02/08 04:52:45;;;;;;;;;;;-2.00;99.90;;;;;;8361437;28;19924;-73
2023/02/08 04:56:47;;;;;;;;;;;-2.00;99.90;;;;;;8390634;28;19932;-73
2023/02/08 05:00:48;;;;;;;;;;;-2.00;99.90;;;;;;8401846;28;19935;-74
2023/02/08 05:04:50;;;;;;;;;;;-2.00;99.90;;;;;;8395122;28;20463;-74
2023/02/08 05:08:52;;;;;;;;;;;-2.10;99.90;;;;;;8371945;28;19971;-74
2023/02/08 05:12:53;;;;;;;;;;;-2.10;99.90;;;;;;8393983;28;19931;-73
2023/02/08 05:16:55;;;;;;;;;;;-2.10;99.90;;;;;;8391588;28;20326;-73
2023/02/08 05:20:58;;;;;;;;;;;-2.10;99.90;;;;;;8391894;28;20269;-73
2023/02/08 05:25:00;;;;;;;;;;;-2.10;99.90;;;;;;8384075;28;19924;-74
2023/02/08 05:29:01;;;;;;;;;;;-2.10;99.90;;;;;;8402132;28;20386;-73
2023/02/08 05:33:03;;;;;;;;;;;-2.10;99.90;;;;;;8402497;28;19947;-74
2023/02/08 05:37:05;;;;;;;;;;;-2.10;99.90;;;;;;8413867;28;19932;-73
2023/02/08 05:41:06;;;;;;;;;;;-2.10;99.90;;;;;;8388764;28;20323;-73
2023/02/08 05:45:08;;;;;;;;;;;-2.10;99.90;;;;;;8401982;28;19976;-73
2023/02/08 05:49:10;;;;;;;;;;;-2.00;99.90;;;;;;8405000;28;19966;-73
2023/02/08 05:53:11;;;;;;;;;;;-1.90;99.90;;;;;;8400771;28;19931;-73
2023/02/08 05:57:13;;;;;;;;;;;-1.90;99.90;;;;;;8400031;28;19963;-73
2023/02/08 06:01:15;;;;;;;;;;;-1.80;99.90;;;;;;8375648;28;20018;-73
2023/02/08 06:05:16;;;;;;;;;;;-1.80;99.90;;;;;;8409269;28;19973;-73
2023/02/08 06:09:18;;;;;;;;;;;-1.70;99.90;;;;;;8384980;28;20031;-73
2023/02/08 06:13:19;;;;;;;;;;;-1.70;99.90;;;;;;8401756;28;20322;-73
2023/02/08 06:17:21;;;;;;;;;;;-1.60;99.90;;;;;;8396712;28;20395;-73
2023/02/08 06:21:23;;;;;;;;;;;-1.50;99.90;;;;;;8385787;28;19956;-73
2023/02/08 06:25:25;;;;;;;;;;;-1.40;99.90;;;;;;8392784;28;20018;-73
2023/02/08 06:29:26;;;;;;;;;;;-1.30;99.90;;;;;;8366752;28;20186;-73
2023/02/08 06:33:28;;;;;;;;;;;-1.30;99.90;;;;;;8374514;28;20023;-73
2023/02/08 06:37:29;;;;;;;;;;;-1.20;99.90;;;;;;8390219;28;19964;-73
2023/02/08 06:46:47;;;;;;;;;;;-1.20;99.90;;;;;;8382078;28;19982;-73
2023/02/08 06:50:50;;;;;;;;;;;-1.20;99.90;;;;;;8391564;28;20007;-73
2023/02/08 06:54:52;;;;;;;;;;;-1.20;99.90;;;;;;8384315;28;19924;-73
2023/02/08 06:58:54;;;;;;;;;;;-1.20;99.90;;;;;;8375820;28;20007;-73
2023/02/08 07:07:59;;;;;;;;;;;-1.20;99.90;;;;;;8363427;28;20468;-73
2023/02/08 07:12:03;;;;;;;;;;;-1.20;99.90;;;;;;8385617;28;20039;-73
2023/02/08 07:16:06;;;;;;;;;;;-1.20;99.90;;;;;;8387934;28;19931;-73
2023/02/08 07:20:08;;;;;;;;;;;-1.20;99.90;;;;;;8368008;28;20014;-73
2023/02/08 07:24:09;;;;;;;;;;;-1.20;99.90;;;;;;8399534;28;20399;-73
2023/02/08 07:28:11;;;;;;;;;;;-1.20;99.90;;;;;;8392180;28;20442;-73
2023/02/08 07:32:13;;;;;;;;;;;-1.20;99.90;;;;;;8390556;28;20368;-73
2023/02/08 07:36:14;;;;;;;;;;;-1.10;99.90;;;;;;8394195;28;20272;-73
2023/02/08 07:40:16;;;;;;;;;;;-1.10;99.90;;;;;;8370815;28;19924;-73
2023/02/08 07:44:18;;;;;;;;;;;-1.10;99.90;;;;;;8389824;28;20440;-73
2023/02/08 07:48:19;;;;;;;;;;;-1.00;99.90;;;;;;8370747;28;19990;-73
2023/02/08 07:52:21;;;;;;;;;;;-1.00;99.90;;;;;;8384659;28;19924;-73
2023/02/08 07:56:22;;;;;;;;;;;-0.90;99.90;;;;;;8376278;28;19924;-73
2023/02/08 08:00:25;;;;;;;;;;;-0.90;99.90;;;;;;8367528;28;19928;-73
2023/02/08 08:04:27;;;;;;;;;;;-0.80;99.90;;;;;;8402303;28;19925;-73
2023/02/08 08:08:29;;;;;;;;;;;-0.70;99.90;;;;;;8398506;28;19925;-73
2023/02/08 08:12:30;;;;;;;;;;;-0.50;99.90;;;;;;8390452;28;20405;-73
2023/02/08 08:16:32;;;;;;;;;;;-0.40;99.90;;;;;;8393250;28;19936;-73
2023/02/08 08:20:34;;;;;;;;;;;-0.30;99.90;;;;;;8392561;28;19958;-73
2023/02/08 08:24:36;;;;;;;;;;;-0.20;99.90;;;;;;8398863;28;19925;-73
2023/02/08 08:28:38;;;;;;;;;;;0.00;99.90;;;;;;8406138;28;19961;-73
2023/02/08 08:32:40;;;;;;;;;;;0.10;99.90;;;;;;8387252;28;19924;-73
2023/02/08 08:36:42;;;;;;;;;;;0.20;99.90;;;;;;8379605;28;19933;-73
2023/02/08 08:40:43;;;;;;;;;;;0.30;99.90;;;;;;8385597;28;19925;-73
2023/02/08 08:44:45;;;;;;;;;;;0.30;99.90;;;;;;8395471;28;19959;-74
2023/02/08 08:49:04;;;;;;;;;;;0.40;99.90;;;;;;8382144;28;19927;-74
2023/02/08 08:53:06;;;;;;;;;;;0.50;99.90;;;;;;8381033;28;19929;-74
2023/02/08 08:57:08;;;;;;;;;;;0.70;99.90;;;;;;8390087;28;20035;-74
2023/02/08 09:01:09;;;;;;;;;;;0.80;99.90;;;;;;8391728;28;20037;-74
2023/02/08 09:05:11;;;;;;;;;;;0.90;99.90;;;;;;8394788;28;19932;-74
2023/02/08 09:09:13;;;;;;;;;;;1.00;99.90;;;;;;8397790;28;19924;-74
2023/02/08 09:13:18;;;;;;;;;;;1.10;99.90;;;;;;8391898;28;20390;-74
2023/02/08 09:17:20;;;;;;;;;;;1.20;99.90;;;;;;8396883;28;19924;-74
2023/02/08 09:21:25;;;;;;;;;;;1.40;99.90;;;;;;8397332;28;20015;-74
2023/02/08 09:25:27;;;;;;;;;;;1.50;99.90;;;;;;8396607;28;19950;-74
2023/02/08 09:29:29;;;;;;;;;;;1.70;99.90;;;;;;8396266;28;19969;-74
2023/02/08 09:33:30;;;;;;;;;;;1.80;99.90;;;;;;8376539;28;19935;-74
2023/02/08 09:37:32;;;;;;;;;;;2.00;99.90;;;;;;8381690;28;20019;-74
2023/02/08 09:41:42;;;;;;;;;;;2.30;99.90;;;;;;8397065;28;20019;-74
2023/02/08 09:45:47;;;;;;;;;;;2.70;99.90;;;;;;8400809;28;19932;-74
2023/02/08 09:50:15;;;;;;;;;;;3.20;99.90;;;;;;8406110;28;19924;-74
2023/02/08 09:54:23;;;;;;;;;;;3.70;99.90;;;;;;8393819;28;20390;-74
2023/02/08 09:58:41;;;;;;;;;;;4.00;99.90;;;;;;8396013;28;19925;-74
2023/02/08 10:02:44;;;;;;;;;;;4.20;99.90;;;;;;8383895;28;20024;-74
2023/02/08 10:06:46;;;;;;;;;;;4.40;99.90;;;;;;8386300;28;19925;-74
2023/02/08 10:11:05;;;;;;;;;;;4.40;99.90;;;;;;8376581;28;19986;-74
2023/02/08 10:15:16;;;;;;;;;;;4.30;99.90;;;;;;8391501;28;19930;-74
2023/02/08 10:19:39;;;;;;;;;;;4.30;99.90;;;;;;8385185;28;19991;-74
2023/02/08 10:23:41;;;;;;;;;;;4.40;99.90;;;;;;8368041;28;19936;-74
2023/02/08 10:27:49;;;;;;;;;;;4.60;99.90;;;;;;8378010;28;19940;-74
2023/02/08 10:41:58;;;;;;;;;;;6.10;99.90;;;;;;8380825;28;19920;-74
2023/02/08 10:46:02;;;;;;;;;;;6.90;99.90;;;;;;8373612;28;19972;-74
2023/02/08 10:50:23;;;;;;;;;;;7.10;99.90;;;;;;8378955;28;20371;-74
2023/02/08 10:54:24;;;;;;;;;;;7.60;99.90;;;;;;8378070;28;20542;-74
2023/02/08 10:58:26;;;;;;;;;;;8.10;99.90;;;;;;8386569;28;19928;-74
2023/02/08 11:02:32;;;;;;;;;;;8.60;99.90;;;;;;8387314;28;19924;-74
2023/02/08 11:06:33;;;;;;;;;;;9.10;99.90;;;;;;8396301;28;20063;-74
2023/02/08 11:10:36;;;;;;;;;;;9.60;99.90;;;;;;8380993;28;20010;-74
2023/02/08 11:14:39;;;;;;;;;;;9.90;99.90;;;;;;8382412;28;19931;-74
2023/02/08 11:18:50;;;;;;;;;;;10.30;99.90;;;;;;8374000;28;19937;-74
2023/02/08 11:22:52;;;;;;;;;;;10.60;99.90;;;;;;8398341;28;19928;-74
2023/02/08 11:26:55;;;;;;;;;;;11.00;99.90;;;;;;8397114;28;19935;-74
2023/02/08 11:30:58;;;;;;;;;;;11.50;99.90;;;;;;8389995;28;19928;-74
2023/02/08 11:35:20;;;;;;;;;;;12.00;99.90;;;;;;8381325;28;19928;-74
2023/02/08 11:39:24;;;;;;;;;;;12.50;99.90;;;;;;8380523;28;19960;-74
2023/02/08 11:43:28;;;;;;;;;;;12.70;99.90;;;;;;8362310;28;19944;-74
2023/02/08 11:47:34;;;;;;;;;;;13.10;99.90;;;;;;8359733;28;21095;-74
2023/02/08 11:51:36;;;;;;;;;;;13.50;99.90;;;;;;8364758;28;20269;-74
2023/02/08 11:55:39;;;;;;;;;;;13.80;99.90;;;;;;8365765;28;19925;-74
2023/02/08 11:59:41;;;;;;;;;;;14.10;99.90;;;;;;8374652;28;19928;-75
2023/02/08 12:03:44;;;;;;;;;;;14.70;99.90;;;;;;8368086;28;20027;-74
2023/02/08 12:07:49;;;;;;;;;;;15.00;99.90;;;;;;8354366;28;19932;-74
2023/02/08 12:12:00;;;;;;;;;;;15.00;99.90;;;;;;8363594;28;19928;-74
2023/02/08 12:16:13;;;;;;;;;;;14.90;99.90;;;;;;8351612;28;19933;-74
2023/02/08 12:20:22;;;;;;;;;;;14.90;99.90;;;;;;8361348;28;19936;-74
2023/02/08 12:24:42;;;;;;;;;;;14.80;99.90;;;;;;8366759;28;19934;-74
2023/02/08 12:29:01;;;;;;;;;;;14.80;99.90;;;;;;8363944;28;19927;-74
2023/02/08 12:33:15;;;;;;;;;;;14.80;99.90;;;;;;8368656;28;20128;-74
2023/02/08 12:41:53;;;;;;;;;;;14.70;99.90;;;;;;8366789;28;20440;-74
2023/02/08 12:45:54;;;;;;;;;;;14.90;99.90;;;;;;8368460;28;20012;-74
2023/02/08 12:50:02;;;;;;;;;;;15.20;99.90;;;;;;8361479;28;20281;-75
2023/02/08 12:54:09;;;;;;;;;;;15.30;99.90;;;;;;8344398;28;19939;-74
2023/02/08 12:58:30;;;;;;;;;;;15.10;99.90;;;;;;8388361;28;19929;-74
2023/02/08 13:02:45;;;;;;;;;;;15.10;99.90;;;;;;8373529;28;19932;-74
2023/02/08 13:11:56;;;;;;;;;;;14.60;99.90;;;;;;8324299;28;20400;-74
2023/02/08 13:16:18;;;;;;;;;;;14.60;99.90;;;;;;8350876;28;19925;-74
2023/02/08 13:20:35;;;;;;;;;;;14.90;99.90;;;;;;8366289;28;19932;-74
2023/02/08 13:24:38;;;;;;;;;;;15.30;99.90;;;;;;8365679;28;19960;-74
2023/02/08 13:28:45;;;;;;;;;;;15.00;99.90;;;;;;8366575;28;19925;-74
2023/02/08 13:32:49;;;;;;;;;;;14.10;99.90;;;;;;8366915;28;19964;-74
2023/02/08 13:36:54;;;;;;;;;;;13.40;99.90;;;;;;8366051;28;19928;-74
2023/02/08 13:41:03;;;;;;;;;;;12.90;99.90;;;;;;8373640;28;19928;-74
2023/02/08 13:45:05;;;;;;;;;;;12.50;99.90;;;;;;8351586;28;20398;-74
2023/02/08 13:49:27;;;;;;;;;;;12.30;99.90;;;;;;8352540;28;19932;-74
2023/02/08 13:53:38;;;;;;;;;;;11.90;99.90;;;;;;8372235;28;19971;-74
2023/02/08 13:57:53;;;;;;;;;;;11.60;99.90;;;;;;8363239;28;20305;-73
2023/02/08 14:02:10;;;;;;;;;;;11.40;99.90;;;;;;8352658;28;19954;-74
2023/02/08 14:06:22;;;;;;;;;;;11.40;99.90;;;;;;8363351;28;20026;-74
2023/02/08 14:10:36;;;;;;;;;;;11.30;99.90;;;;;;8368300;28;20023;-74
2023/02/08 14:14:38;;;;;;;;;;;11.20;99.90;;;;;;8366481;28;19938;-74
2023/02/08 14:18:49;;;;;;;;;;;11.10;99.90;;;;;;8369638;28;19967;-74
2023/02/08 14:22:52;;;;;;;;;;;11.10;99.90;;;;;;8348674;28;19978;-74
2023/02/08 14:27:16;;;;;;;;;;;11.10;99.90;;;;;;8368128;28;19932;-74
2023/02/08 14:31:18;;;;;;;;;;;11.20;99.90;;;;;;8348158;28;19932;-74
2023/02/08 14:35:24;;;;;;;;;;;11.10;99.90;;;;;;8362972;28;20027;-74
2023/02/08 14:39:28;;;;;;;;;;;11.20;99.90;;;;;;8362195;28;19960;-74
2023/02/08 14:43:31;;;;;;;;;;;11.30;99.90;;;;;;8365679;28;19929;-74
2023/02/08 14:47:34;;;;;;;;;;;11.50;99.90;;;;;;8370284;28;19935;-74
2023/02/08 14:51:37;;;;;;;;;;;12.40;99.90;;;;;;8368164;28;20384;-75
2023/02/08 14:55:47;;;;;;;;;;;13.80;99.90;;;;;;8364504;28;19960;-75
2023/02/08 14:59:50;;;;;;;;;;;15.10;99.90;;;;;;8366456;28;20006;-75
2023/02/08 15:03:59;;;;;;;;;;;16.40;99.90;;;;;;8363281;28;19935;-75
2023/02/08 15:08:03;;;;;;;;;;;17.20;99.90;;;;;;8343653;28;19924;-75
2023/02/08 15:12:10;;;;;;;;;;;17.80;99.90;;;;;;8357509;28;19935;-75
2023/02/08 15:16:12;;;;;;;;;;;17.60;99.90;;;;;;8365959;28;19939;-75
2023/02/08 15:20:19;;;;;;;;;;;17.10;99.90;;;;;;8369916;28;19971;-75
2023/02/08 15:24:21;;;;;;;;;;;16.80;99.90;;;;;;8357411;28;21505;-74
2023/02/08 15:28:24;;;;;;;;;;;16.40;97.90;;;;;;8358801;28;20426;-75
2023/02/08 15:32:27;;;;;;;;;;;16.20;99.90;;;;;;8360931;28;19932;-74
2023/02/08 15:36:33;;;;;;;;;;;16.20;96.80;;;;;;8363038;28;20348;-75
2023/02/08 15:40:35;;;;;;;;;;;15.80;99.90;;;;;;8358658;28;19983;-74
2023/02/08 15:44:40;;;;;;;;;;;15.70;99.90;;;;;;8360858;28;20308;-75
2023/02/08 15:48:43;;;;;;;;;;;15.10;98.90;;;;;;8362277;28;20628;-74
2023/02/08 15:52:46;;;;;;;;;;;14.70;94.80;;;;;;8363085;28;19924;-74
2023/02/08 15:57:00;;;;;;;;;;;14.50;97.00;;;;;;8361311;28;20471;-74
2023/02/08 16:01:02;;;;;;;;;;;14.10;99.90;;;;;;8343526;28;19929;-74
2023/02/08 16:05:10;;;;;;;;;;;13.60;99.90;;;;;;8345871;28;20754;-74
2023/02/08 16:09:15;;;;;;;;;;;13.00;99.90;;;;;;8359762;28;20432;-74
2023/02/08 16:13:37;;;;;;;;;;;12.60;97.60;;;;;;8346491;28;20272;-74
2023/02/08 16:17:43;;;;;;;;;;;12.30;97.90;;;;;;8348261;28;19933;-74
2023/02/08 16:21:44;;;;;;;;;;;12.30;98.90;;;;;;8347436;28;19929;-74
2023/02/08 16:25:49;;;;;;;;;;;12.60;99.90;;;;;;8349038;28;19932;-74
2023/02/08 16:29:51;;;;;;;;;;;12.80;99.90;;;;;;8371527;28;19928;-74
2023/02/08 16:33:57;;;;;;;;;;;12.40;99.00;;;;;;8358351;28;19939;-74
2023/02/08 16:38:01;;;;;;;;;;;11.90;98.70;;;;;;8364459;28;19928;-74
2023/02/08 16:42:17;;;;;;;;;;;11.30;98.20;;;;;;8366103;28;19935;-74
2023/02/08 16:46:20;;;;;;;;;;;10.70;98.10;;;;;;8372493;28;19929;-73
2023/02/08 16:50:23;;;;;;;;;;;10.30;97.70;;;;;;8357035;28;20427;-73
2023/02/08 16:54:25;;;;;;;;;;;9.90;98.40;;;;;;8350063;28;20593;-74
2023/02/08 16:58:28;;;;;;;;;;;9.50;98.00;;;;;;8367010;28;19928;-74
2023/02/08 17:02:30;;;;;;;;;;;9.20;97.80;;;;;;8363750;28;20344;-74
2023/02/08 17:06:33;;;;;;;;;;;8.90;98.30;;;;;;8364066;28;19972;-73
2023/02/08 17:10:35;;;;;;;;;;;8.70;98.10;;;;;;8343915;28;19932;-74
2023/02/08 17:14:54;;;;;;;;;;;8.40;97.40;;;;;;8357249;28;20134;-74
2023/02/08 17:18:57;;;;;;;;;;;8.10;97.40;;;;;;8366589;28;19935;-73
2023/02/08 17:22:59;;;;;;;;;;;7.80;97.40;;;;;;8361524;28;19998;-73
2023/02/08 17:27:01;;;;;;;;;;;7.70;97.90;;;;;;8368548;28;20024;-74
2023/02/08 17:31:02;;;;;;;;;;;7.40;97.30;;;;;;8345690;28;20015;-73
2023/02/08 17:35:04;;;;;;;;;;;7.20;97.20;;;;;;8355753;28;19964;-73
2023/02/08 17:39:06;;;;;;;;;;;7.10;97.60;;;;;;8369317;28;19964;-73
2023/02/08 17:43:09;;;;;;;;;;;6.90;97.40;;;;;;8367081;28;19972;-73
2023/02/08 17:47:11;;;;;;;;;;;6.70;97.00;;;;;;8370702;28;19967;-74
2023/02/08 17:51:14;;;;;;;;;;;6.60;96.80;;;;;;8356136;28;20399;-73
2023/02/08 17:55:17;;;;;;;;;;;6.50;97.30;;;;;;8355929;28;19951;-73
2023/02/08 17:59:18;;;;;;;;;;;6.50;97.20;;;;;;8362220;28;19929;-74
2023/02/08 18:03:20;;;;;;;;;;;6.40;96.80;;;;;;8371771;28;19971;-73
2023/02/08 18:07:22;;;;;;;;;;;6.30;97.00;;;;;;8346345;28;19942;-73
2023/02/08 18:11:24;;;;;;;;;;;6.30;96.90;;;;;;8371585;28;19924;-74
2023/02/08 18:15:26;;;;;;;;;;;6.20;97.20;;;;;;8370495;28;20019;-74
2023/02/08 18:19:27;;;;;;;;;;;6.00;96.80;;;;;;8357959;28;19928;-73
2023/02/08 18:23:29;;;;;;;;;;;5.90;97.10;;;;;;8380200;28;20043;-74
2023/02/08 18:27:31;;;;;;;;;;;5.90;97.30;;;;;;8374738;28;19939;-73
2023/02/08 18:31:32;;;;;;;;;;;5.90;96.70;;;;;;8362946;28;19939;-73
2023/02/08 18:35:35;;;;;;;;;;;5.90;96.90;;;;;;8353704;28;20512;-73
2023/02/08 18:39:37;;;;;;;;;;;5.90;96.70;;;;;;8345159;28;19932;-73
2023/02/08 18:43:39;;;;;;;;;;;5.80;96.90;;;;;;8362545;28;19956;-73
2023/02/08 18:47:41;;;;;;;;;;;5.70;96.80;;;;;;8362471;28;20442;-73
2023/02/08 18:51:46;;;;;;;;;;;5.60;97.00;;;;;;8370243;28;19970;-73
2023/02/08 18:55:51;;;;;;;;;;;5.60;96.70;;;;;;8358843;28;20269;-73
2023/02/08 18:59:53;;;;;;;;;;;5.50;96.50;;;;;;8342520;28;19979;-73
2023/02/08 19:03:56;;;;;;;;;;;5.50;96.40;;;;;;8345646;28;19931;-73
2023/02/08 19:07:58;;;;;;;;;;;5.30;96.60;;;;;;8358481;28;19932;-74
2023/02/08 19:11:59;;;;;;;;;;;5.20;96.60;;;;;;8358057;28;19935;-74
2023/02/08 19:21:13;;;;;;;;;;;5.30;96.60;;;;;;8365467;28;20168;-73
2023/02/08 19:25:15;;;;;;;;;;;5.20;96.50;;;;;;8362464;28;19931;-74
2023/02/08 19:29:20;;;;;;;;;;;5.10;96.50;;;;;;8360032;28;19950;-73
2023/02/08 19:33:22;;;;;;;;;;;5.00;96.40;;;;;;8357753;28;19925;-73
2023/02/08 19:37:23;;;;;;;;;;;4.80;96.10;;;;;;8348516;28;19929;-74
2023/02/08 19:41:27;;;;;;;;;;;4.70;96.30;;;;;;8365630;28;19924;-73
2023/02/08 19:45:29;;;;;;;;;;;4.70;96.40;;;;;;8365271;28;19928;-73
2023/02/08 19:49:30;;;;;;;;;;;4.50;96.30;;;;;;8358111;28;19924;-74
2023/02/08 19:53:32;;;;;;;;;;;4.40;96.40;;;;;;8377129;28;20682;-74
2023/02/08 19:57:36;;;;;;;;;;;4.40;96.40;;;;;;8342842;28;20023;-73
2023/02/08 20:01:38;;;;;;;;;;;4.30;96.50;;;;;;8360944;28;19939;-73
2023/02/08 20:05:40;;;;;;;;;;;4.20;96.50;;;;;;8365643;28;20387;-73
2023/02/08 20:09:42;;;;;;;;;;;4.10;96.60;;;;;;8361233;28;19933;-73
2023/02/08 20:13:44;;;;;;;;;;;4.00;96.60;;;;;;8363528;28;19931;-74
2023/02/08 20:17:46;;;;;;;;;;;4.00;96.50;;;;;;8374395;28;19924;-74
2023/02/08 20:21:48;;;;;;;;;;;4.00;96.60;;;;;;8377198;28;20393;-73
2023/02/08 20:25:49;;;;;;;;;;;4.00;96.40;;;;;;8365786;28;19935;-74
2023/02/08 20:29:53;;;;;;;;;;;3.90;96.40;;;;;;8369821;28;20317;-74
2023/02/08 20:49:06;;;;;;;;;;;3.40;96.30;;;;;;8371428;28;20435;-73
2023/02/08 20:53:08;;;;;;;;;;;3.40;96.40;;;;;;8368292;28;20019;-74
2023/02/08 20:57:14;;;;;;;;;;;3.20;96.50;;;;;;8365805;28;20280;-73
2023/02/08 21:01:19;;;;;;;;;;;3.10;96.40;;;;;;8365904;28;19990;-74
2023/02/08 21:05:21;;;;;;;;;;;2.90;96.40;;;;;;8371988;28;19928;-74
2023/02/08 21:09:23;;;;;;;;;;;2.80;96.40;;;;;;8366625;28;20011;-73
2023/02/08 21:13:24;;;;;;;;;;;2.70;96.40;;;;;;8368008;28;19928;-73
2023/02/08 21:17:26;;;;;;;;;;;2.60;96.50;;;;;;8375390;28;20359;-73
2023/02/08 21:21:28;;;;;;;;;;;2.50;96.50;;;;;;8366174;28;19967;-73
2023/02/08 21:25:29;;;;;;;;;;;2.50;96.50;;;;;;8358872;28;19929;-73
2023/02/08 21:29:31;;;;;;;;;;;2.40;96.40;;;;;;8354630;28;19931;-73
2023/02/08 21:33:33;;;;;;;;;;;2.40;96.40;;;;;;8365358;28;19929;-74
2023/02/08 21:37:35;;;;;;;;;;;2.40;96.60;;;;;;8341443;28;19932;-73
2023/02/08 21:41:36;;;;;;;;;;;2.30;96.80;;;;;;8366403;28;19929;-73
2023/02/08 21:45:38;;;;;;;;;;;2.30;96.80;;;;;;8366416;28;20384;-73
2023/02/08 21:58:20;;;;;;;;;;;2.00;96.70;;;;;;8361211;28;19925;-73
2023/02/08 22:02:24;;;;;;;;;;;1.90;96.70;;;;;;8370283;28;19947;-73
2023/02/08 22:06:26;;;;;;;;;;;1.90;96.80;;;;;;8369115;28;19932;-73
2023/02/08 22:10:31;;;;;;;;;;;1.80;96.60;;;;;;8388029;28;20303;-73
2023/02/08 22:14:33;;;;;;;;;;;1.80;96.70;;;;;;8386691;28;19928;-73
2023/02/08 22:18:36;;;;;;;;;;;1.80;96.70;;;;;;8383906;28;19925;-73
2023/02/08 22:22:37;;;;;;;;;;;1.80;96.90;;;;;;8394219;28;19924;-73
2023/02/08 22:26:39;;;;;;;;;;;1.80;96.90;;;;;;8363589;28;20008;-74
2023/02/08 22:30:40;;;;;;;;;;;1.80;96.90;;;;;;8388119;28;20292;-73
2023/02/08 22:34:43;;;;;;;;;;;1.90;96.90;;;;;;8384000;28;19929;-73
2023/02/08 22:38:45;;;;;;;;;;;1.90;96.80;;;;;;8370796;28;20371;-73
2023/02/08 22:42:47;;;;;;;;;;;2.00;96.80;;;;;;8378399;28;19931;-73
2023/02/08 22:46:48;;;;;;;;;;;2.10;96.80;;;;;;8382523;28;21845;-73
2023/02/08 22:50:50;;;;;;;;;;;2.10;96.60;;;;;;8378739;28;19928;-73
2023/02/08 22:54:52;;;;;;;;;;;2.10;96.50;;;;;;8380198;28;19928;-74
2023/02/08 22:58:54;;;;;;;;;;;2.20;96.70;;;;;;8382662;28;20292;-73
2023/02/08 23:02:55;;;;;;;;;;;2.10;96.60;;;;;;8370931;28;20024;-73
2023/02/08 23:06:58;;;;;;;;;;;2.10;96.50;;;;;;8386767;28;19925;-73
2023/02/08 23:11:01;;;;;;;;;;;2.00;96.40;;;;;;8390700;28;19925;-73
2023/02/08 23:15:03;;;;;;;;;;;1.90;96.40;;;;;;8367293;28;20330;-73
2023/02/08 23:19:05;;;;;;;;;;;1.80;96.40;;;;;;8371247;28;20020;-73
2023/02/08 23:23:06;;;;;;;;;;;1.80;96.50;;;;;;8388879;28;19924;-73
2023/02/08 23:27:08;;;;;;;;;;;1.80;96.30;;;;;;8381946;28;19928;-73
2023/02/08 23:31:11;;;;;;;;;;;1.70;96.30;;;;;;8409784;28;19982;-73
2023/02/08 23:35:12;;;;;;;;;;;1.60;96.50;;;;;;8366454;28;20644;-73
2023/02/08 23:39:14;;;;;;;;;;;1.50;96.40;;;;;;8384194;28;19989;-74
2023/02/08 23:43:16;;;;;;;;;;;1.50;96.50;;;;;;8382498;28;20696;-73
2023/02/08 23:47:17;;;;;;;;;;;1.50;96.50;;;;;;8385141;28;19932;-73
2023/02/08 23:51:20;;;;;;;;;;;1.50;96.30;;;;;;8370864;28;20023;-73
2023/02/08 23:55:22;;;;;;;;;;;1.50;96.40;;;;;;8376423;28;19975;-73
2023/02/08 23:59:23;;;;;;;;;;;1.50;96.40;;;;;;8382926;28;19928;-73
